sensor_id;sensor_type;location;lat;lon;timestamp;P1;durP1;ratioP1;P2;durP2;ratioP2
68229;SDS011;55048;52.220;5.160;2023-07-13T00:00:46;16.73;;;2.28;;
68229;SDS011;55048;52.220;5.160;2023-07-13T00:03:12;25.23;;;2.15;;
68229;SDS011;55048;52.220;5.160;2023-07-13T00:05:38;17.85;;;1.95;;
68229;SDS011;55048;52.220;5.160;2023-07-13T00:08:05;20.30;;;1.70;;
68229;SDS011;55048;52.220;5.160;2023-07-13T00:10:30;14.05;;;1.67;;
68229;SDS011;55048;52.220;5.160;2023-07-13T00:12:56;16.70;;;1.55;;
68229;SDS011;55048;52.220;5.160;2023-07-13T00:15:23;16.90;;;2.00;;
68229;SDS011;55048;52.220;5.160;2023-07-13T00:17:51;17.75;;;1.70;;
68229;SDS011;55048;52.220;5.160;2023-07-13T00:20:18;18.02;;;1.55;;
68229;SDS011;55048;52.220;5.160;2023-07-13T00:22:46;23.92;;;2.28;;
68229;SDS011;55048;52.220;5.160;2023-07-13T00:25:12;19.48;;;1.67;;
68229;SDS011;55048;52.220;5.160;2023-07-13T00:27:38;21.73;;;2.00;;
68229;SDS011;55048;52.220;5.160;2023-07-13T00:30:04;18.38;;;2.15;;
68229;SDS011;55048;52.220;5.160;2023-07-13T00:32:30;18.05;;;2.17;;
68229;SDS011;55048;52.220;5.160;2023-07-13T00:34:56;13.18;;;1.50;;
68229;SDS011;55048;52.220;5.160;2023-07-13T00:37:25;15.88;;;1.65;;
68229;SDS011;55048;52.220;5.160;2023-07-13T00:39:51;16.50;;;1.67;;
68229;SDS011;55048;52.220;5.160;2023-07-13T00:42:16;12.32;;;1.40;;
68229;SDS011;55048;52.220;5.160;2023-07-13T00:44:59;21.02;;;1.67;;
68229;SDS011;55048;52.220;5.160;2023-07-13T00:47:26;13.05;;;1.33;;
68229;SDS011;55048;52.220;5.160;2023-07-13T00:49:51;15.98;;;2.08;;
68229;SDS011;55048;52.220;5.160;2023-07-13T00:52:17;17.80;;;2.05;;
68229;SDS011;55048;52.220;5.160;2023-07-13T00:54:43;19.92;;;1.45;;
68229;SDS011;55048;52.220;5.160;2023-07-13T00:57:12;19.30;;;1.50;;
68229;SDS011;55048;52.220;5.160;2023-07-13T00:59:42;9.65;;;1.25;;
68229;SDS011;55048;52.220;5.160;2023-07-13T01:02:10;19.07;;;1.80;;
68229;SDS011;55048;52.220;5.160;2023-07-13T01:04:36;19.60;;;1.50;;
68229;SDS011;55048;52.220;5.160;2023-07-13T01:07:01;17.55;;;1.60;;
68229;SDS011;55048;52.220;5.160;2023-07-13T01:09:27;12.60;;;1.40;;
68229;SDS011;55048;52.220;5.160;2023-07-13T01:11:53;11.40;;;1.50;;
68229;SDS011;55048;52.220;5.160;2023-07-13T01:14:18;11.98;;;1.00;;
68229;SDS011;55048;52.220;5.160;2023-07-13T01:16:45;12.10;;;1.13;;
68229;SDS011;55048;52.220;5.160;2023-07-13T01:22:05;9.23;;;1.10;;
68229;SDS011;55048;52.220;5.160;2023-07-13T01:24:34;12.02;;;1.08;;
68229;SDS011;55048;52.220;5.160;2023-07-13T01:27:04;14.07;;;1.35;;
68229;SDS011;55048;52.220;5.160;2023-07-13T01:29:32;11.60;;;1.10;;
68229;SDS011;55048;52.220;5.160;2023-07-13T01:31:59;9.38;;;1.13;;
68229;SDS011;55048;52.220;5.160;2023-07-13T01:34:25;14.35;;;1.13;;
68229;SDS011;55048;52.220;5.160;2023-07-13T01:36:52;12.80;;;1.75;;
68229;SDS011;55048;52.220;5.160;2023-07-13T01:39:22;14.52;;;1.65;;
68229;SDS011;55048;52.220;5.160;2023-07-13T01:41:48;11.85;;;1.33;;
68229;SDS011;55048;52.220;5.160;2023-07-13T01:44:13;10.98;;;1.17;;
68229;SDS011;55048;52.220;5.160;2023-07-13T01:46:39;14.65;;;1.23;;
68229;SDS011;55048;52.220;5.160;2023-07-13T01:49:04;15.75;;;1.20;;
68229;SDS011;55048;52.220;5.160;2023-07-13T01:51:30;10.52;;;1.13;;
68229;SDS011;55048;52.220;5.160;2023-07-13T01:53:55;13.98;;;1.30;;
68229;SDS011;55048;52.220;5.160;2023-07-13T01:56:22;9.15;;;1.45;;
68229;SDS011;55048;52.220;5.160;2023-07-13T01:58:48;10.20;;;1.25;;
68229;SDS011;55048;52.220;5.160;2023-07-13T02:01:14;17.58;;;1.65;;
68229;SDS011;55048;52.220;5.160;2023-07-13T02:03:39;11.80;;;1.25;;
68229;SDS011;55048;52.220;5.160;2023-07-13T02:06:05;9.48;;;1.15;;
68229;SDS011;55048;52.220;5.160;2023-07-13T02:08:32;17.45;;;1.40;;
68229;SDS011;55048;52.220;5.160;2023-07-13T02:10:58;6.93;;;1.33;;
68229;SDS011;55048;52.220;5.160;2023-07-13T02:13:24;13.27;;;1.15;;
68229;SDS011;55048;52.220;5.160;2023-07-13T02:15:50;8.80;;;1.20;;
68229;SDS011;55048;52.220;5.160;2023-07-13T02:18:16;14.45;;;1.80;;
68229;SDS011;55048;52.220;5.160;2023-07-13T02:20:42;13.70;;;1.33;;
68229;SDS011;55048;52.220;5.160;2023-07-13T02:23:09;16.60;;;1.55;;
68229;SDS011;55048;52.220;5.160;2023-07-13T02:25:35;16.88;;;1.50;;
68229;SDS011;55048;52.220;5.160;2023-07-13T02:28:00;20.80;;;2.05;;
68229;SDS011;55048;52.220;5.160;2023-07-13T02:30:27;11.98;;;1.55;;
68229;SDS011;55048;52.220;5.160;2023-07-13T02:32:55;17.17;;;1.70;;
68229;SDS011;55048;52.220;5.160;2023-07-13T02:35:21;12.05;;;1.73;;
68229;SDS011;55048;52.220;5.160;2023-07-13T02:37:47;16.92;;;1.60;;
68229;SDS011;55048;52.220;5.160;2023-07-13T02:40:12;10.80;;;1.33;;
68229;SDS011;55048;52.220;5.160;2023-07-13T02:42:38;22.42;;;1.95;;
68229;SDS011;55048;52.220;5.160;2023-07-13T02:45:04;12.35;;;1.50;;
68229;SDS011;55048;52.220;5.160;2023-07-13T02:47:31;12.73;;;1.42;;
68229;SDS011;55048;52.220;5.160;2023-07-13T02:49:58;13.85;;;1.45;;
68229;SDS011;55048;52.220;5.160;2023-07-13T02:52:23;12.10;;;1.55;;
68229;SDS011;55048;52.220;5.160;2023-07-13T02:54:49;17.98;;;1.75;;
68229;SDS011;55048;52.220;5.160;2023-07-13T02:57:15;13.25;;;1.58;;
68229;SDS011;55048;52.220;5.160;2023-07-13T02:59:41;13.18;;;1.33;;
68229;SDS011;55048;52.220;5.160;2023-07-13T03:02:06;11.30;;;1.23;;
68229;SDS011;55048;52.220;5.160;2023-07-13T03:04:32;11.55;;;1.30;;
68229;SDS011;55048;52.220;5.160;2023-07-13T03:06:57;7.78;;;1.13;;
68229;SDS011;55048;52.220;5.160;2023-07-13T03:09:27;12.80;;;1.50;;
68229;SDS011;55048;52.220;5.160;2023-07-13T03:11:54;11.48;;;1.20;;
68229;SDS011;55048;52.220;5.160;2023-07-13T03:14:27;7.60;;;1.15;;
68229;SDS011;55048;52.220;5.160;2023-07-13T03:16:52;11.30;;;1.20;;
68229;SDS011;55048;52.220;5.160;2023-07-13T03:19:20;11.23;;;1.10;;
68229;SDS011;55048;52.220;5.160;2023-07-13T03:21:49;10.18;;;0.90;;
68229;SDS011;55048;52.220;5.160;2023-07-13T03:24:14;10.38;;;0.90;;
68229;SDS011;55048;52.220;5.160;2023-07-13T03:26:41;9.52;;;1.10;;
68229;SDS011;55048;52.220;5.160;2023-07-13T03:29:06;5.43;;;0.90;;
68229;SDS011;55048;52.220;5.160;2023-07-13T03:31:33;11.48;;;1.08;;
68229;SDS011;55048;52.220;5.160;2023-07-13T03:34:00;9.30;;;0.93;;
68229;SDS011;55048;52.220;5.160;2023-07-13T03:36:29;12.30;;;1.50;;
68229;SDS011;55048;52.220;5.160;2023-07-13T03:38:59;5.22;;;0.90;;
68229;SDS011;55048;52.220;5.160;2023-07-13T03:41:41;10.95;;;1.10;;
68229;SDS011;55048;52.220;5.160;2023-07-13T03:44:06;13.63;;;1.50;;
68229;SDS011;55048;52.220;5.160;2023-07-13T03:46:32;9.90;;;1.35;;
68229;SDS011;55048;52.220;5.160;2023-07-13T03:48:58;14.57;;;1.38;;
68229;SDS011;55048;52.220;5.160;2023-07-13T03:51:24;9.90;;;1.17;;
68229;SDS011;55048;52.220;5.160;2023-07-13T03:53:50;15.00;;;1.73;;
68229;SDS011;55048;52.220;5.160;2023-07-13T03:56:18;12.73;;;1.60;;
68229;SDS011;55048;52.220;5.160;2023-07-13T03:58:45;14.18;;;1.50;;
68229;SDS011;55048;52.220;5.160;2023-07-13T04:01:22;11.80;;;2.00;;
68229;SDS011;55048;52.220;5.160;2023-07-13T04:03:48;19.02;;;1.83;;
68229;SDS011;55048;52.220;5.160;2023-07-13T04:06:16;7.75;;;1.10;;
68229;SDS011;55048;52.220;5.160;2023-07-13T04:08:51;19.60;;;1.95;;
68229;SDS011;55048;52.220;5.160;2023-07-13T04:11:32;13.05;;;1.60;;
68229;SDS011;55048;52.220;5.160;2023-07-13T04:13:59;17.48;;;1.92;;
68229;SDS011;55048;52.220;5.160;2023-07-13T04:16:25;11.20;;;2.00;;
68229;SDS011;55048;52.220;5.160;2023-07-13T04:18:51;11.95;;;1.58;;
68229;SDS011;55048;52.220;5.160;2023-07-13T04:21:20;10.77;;;1.30;;
68229;SDS011;55048;52.220;5.160;2023-07-13T04:23:46;14.98;;;1.63;;
68229;SDS011;55048;52.220;5.160;2023-07-13T04:26:11;8.77;;;1.40;;
68229;SDS011;55048;52.220;5.160;2023-07-13T04:28:37;17.15;;;1.63;;
68229;SDS011;55048;52.220;5.160;2023-07-13T04:31:02;13.70;;;1.48;;
68229;SDS011;55048;52.220;5.160;2023-07-13T04:33:28;11.30;;;1.17;;
68229;SDS011;55048;52.220;5.160;2023-07-13T04:35:54;15.68;;;2.03;;
68229;SDS011;55048;52.220;5.160;2023-07-13T04:38:23;13.55;;;1.83;;
68229;SDS011;55048;52.220;5.160;2023-07-13T04:40:50;10.57;;;1.50;;
68229;SDS011;55048;52.220;5.160;2023-07-13T04:43:16;12.38;;;1.38;;
68229;SDS011;55048;52.220;5.160;2023-07-13T04:45:41;17.50;;;1.90;;
68229;SDS011;55048;52.220;5.160;2023-07-13T04:48:07;7.90;;;1.35;;
68229;SDS011;55048;52.220;5.160;2023-07-13T04:50:35;18.30;;;2.30;;
68229;SDS011;55048;52.220;5.160;2023-07-13T04:53:01;19.15;;;2.50;;
68229;SDS011;55048;52.220;5.160;2023-07-13T04:55:27;15.18;;;2.00;;
68229;SDS011;55048;52.220;5.160;2023-07-13T04:57:56;17.85;;;2.78;;
68229;SDS011;55048;52.220;5.160;2023-07-13T05:00:24;17.80;;;1.98;;
68229;SDS011;55048;52.220;5.160;2023-07-13T05:02:50;14.90;;;2.33;;
68229;SDS011;55048;52.220;5.160;2023-07-13T05:05:15;16.42;;;2.25;;
68229;SDS011;55048;52.220;5.160;2023-07-13T05:07:41;14.25;;;2.53;;
68229;SDS011;55048;52.220;5.160;2023-07-13T05:10:06;19.25;;;2.72;;
68229;SDS011;55048;52.220;5.160;2023-07-13T05:12:33;20.70;;;2.78;;
68229;SDS011;55048;52.220;5.160;2023-07-13T05:14:58;17.00;;;2.38;;
68229;SDS011;55048;52.220;5.160;2023-07-13T05:17:24;18.75;;;2.60;;
68229;SDS011;55048;52.220;5.160;2023-07-13T05:19:50;18.25;;;2.20;;
68229;SDS011;55048;52.220;5.160;2023-07-13T05:22:15;20.33;;;2.75;;
68229;SDS011;55048;52.220;5.160;2023-07-13T05:24:41;27.05;;;2.83;;
68229;SDS011;55048;52.220;5.160;2023-07-13T05:27:06;20.85;;;3.00;;
68229;SDS011;55048;52.220;5.160;2023-07-13T05:29:32;25.58;;;3.17;;
68229;SDS011;55048;52.220;5.160;2023-07-13T05:31:57;14.13;;;2.20;;
68229;SDS011;55048;52.220;5.160;2023-07-13T05:34:23;20.08;;;3.10;;
68229;SDS011;55048;52.220;5.160;2023-07-13T05:36:49;22.90;;;3.08;;
68229;SDS011;55048;52.220;5.160;2023-07-13T05:39:15;19.38;;;2.67;;
68229;SDS011;55048;52.220;5.160;2023-07-13T05:41:41;24.00;;;3.22;;
68229;SDS011;55048;52.220;5.160;2023-07-13T05:44:06;19.65;;;2.80;;
68229;SDS011;55048;52.220;5.160;2023-07-13T05:46:32;19.73;;;3.05;;
68229;SDS011;55048;52.220;5.160;2023-07-13T05:48:58;16.83;;;2.78;;
68229;SDS011;55048;52.220;5.160;2023-07-13T05:51:28;20.85;;;3.10;;
68229;SDS011;55048;52.220;5.160;2023-07-13T05:53:57;21.90;;;3.22;;
68229;SDS011;55048;52.220;5.160;2023-07-13T05:56:22;17.20;;;2.47;;
68229;SDS011;55048;52.220;5.160;2023-07-13T05:58:48;15.07;;;2.47;;
68229;SDS011;55048;52.220;5.160;2023-07-13T06:01:14;25.20;;;3.17;;
68229;SDS011;55048;52.220;5.160;2023-07-13T06:03:40;24.75;;;3.05;;
68229;SDS011;55048;52.220;5.160;2023-07-13T06:06:06;13.65;;;2.75;;
68229;SDS011;55048;52.220;5.160;2023-07-13T06:08:34;23.42;;;2.88;;
68229;SDS011;55048;52.220;5.160;2023-07-13T06:11:03;21.70;;;2.70;;
68229;SDS011;55048;52.220;5.160;2023-07-13T06:13:32;26.30;;;3.08;;
68229;SDS011;55048;52.220;5.160;2023-07-13T06:15:58;22.80;;;3.75;;
68229;SDS011;55048;52.220;5.160;2023-07-13T06:18:24;26.00;;;3.13;;
68229;SDS011;55048;52.220;5.160;2023-07-13T06:20:50;20.23;;;3.42;;
68229;SDS011;55048;52.220;5.160;2023-07-13T06:23:15;24.95;;;3.45;;
68229;SDS011;55048;52.220;5.160;2023-07-13T06:25:41;22.40;;;3.75;;
68229;SDS011;55048;52.220;5.160;2023-07-13T06:28:07;17.50;;;3.00;;
68229;SDS011;55048;52.220;5.160;2023-07-13T06:30:33;21.65;;;3.50;;
68229;SDS011;55048;52.220;5.160;2023-07-13T06:32:59;13.73;;;2.63;;
68229;SDS011;55048;52.220;5.160;2023-07-13T06:35:24;17.63;;;3.05;;
68229;SDS011;55048;52.220;5.160;2023-07-13T06:37:50;14.68;;;2.65;;
68229;SDS011;55048;52.220;5.160;2023-07-13T06:40:16;18.17;;;2.45;;
68229;SDS011;55048;52.220;5.160;2023-07-13T06:42:42;13.63;;;2.30;;
68229;SDS011;55048;52.220;5.160;2023-07-13T06:45:07;18.83;;;2.70;;
68229;SDS011;55048;52.220;5.160;2023-07-13T06:47:33;17.73;;;2.67;;
68229;SDS011;55048;52.220;5.160;2023-07-13T06:49:59;16.15;;;2.00;;
68229;SDS011;55048;52.220;5.160;2023-07-13T06:52:25;17.02;;;2.20;;
68229;SDS011;55048;52.220;5.160;2023-07-13T06:54:51;12.05;;;1.80;;
68229;SDS011;55048;52.220;5.160;2023-07-13T06:57:16;18.60;;;2.63;;
68229;SDS011;55048;52.220;5.160;2023-07-13T06:59:42;16.52;;;2.50;;
68229;SDS011;55048;52.220;5.160;2023-07-13T07:02:08;21.90;;;3.50;;
68229;SDS011;55048;52.220;5.160;2023-07-13T07:04:35;28.45;;;3.78;;
68229;SDS011;55048;52.220;5.160;2023-07-13T07:07:01;11.52;;;1.60;;
68229;SDS011;55048;52.220;5.160;2023-07-13T07:09:26;6.88;;;1.10;;
68229;SDS011;55048;52.220;5.160;2023-07-13T07:11:52;6.57;;;1.30;;
68229;SDS011;55048;52.220;5.160;2023-07-13T07:14:17;10.20;;;2.40;;
68229;SDS011;55048;52.220;5.160;2023-07-13T07:16:43;9.05;;;1.35;;
68229;SDS011;55048;52.220;5.160;2023-07-13T07:19:08;9.38;;;1.02;;
68229;SDS011;55048;52.220;5.160;2023-07-13T07:21:34;3.38;;;0.93;;
68229;SDS011;55048;52.220;5.160;2023-07-13T07:23:59;6.07;;;1.20;;
68229;SDS011;55048;52.220;5.160;2023-07-13T07:26:25;4.70;;;0.75;;
68229;SDS011;55048;52.220;5.160;2023-07-13T07:28:51;5.60;;;0.90;;
68229;SDS011;55048;52.220;5.160;2023-07-13T07:31:16;3.88;;;0.93;;
68229;SDS011;55048;52.220;5.160;2023-07-13T07:33:42;4.93;;;0.90;;
68229;SDS011;55048;52.220;5.160;2023-07-13T07:36:10;3.78;;;1.00;;
68229;SDS011;55048;52.220;5.160;2023-07-13T07:38:37;3.15;;;0.82;;
68229;SDS011;55048;52.220;5.160;2023-07-13T07:41:03;5.55;;;1.00;;
68229;SDS011;55048;52.220;5.160;2023-07-13T07:43:30;4.57;;;1.20;;
68229;SDS011;55048;52.220;5.160;2023-07-13T07:45:56;7.63;;;1.45;;
68229;SDS011;55048;52.220;5.160;2023-07-13T07:48:22;6.18;;;1.10;;
68229;SDS011;55048;52.220;5.160;2023-07-13T07:50:48;5.28;;;1.13;;
68229;SDS011;55048;52.220;5.160;2023-07-13T07:53:14;4.53;;;1.15;;
68229;SDS011;55048;52.220;5.160;2023-07-13T07:55:39;7.68;;;1.20;;
68229;SDS011;55048;52.220;5.160;2023-07-13T07:58:05;10.18;;;1.70;;
68229;SDS011;55048;52.220;5.160;2023-07-13T08:00:31;6.00;;;1.42;;
68229;SDS011;55048;52.220;5.160;2023-07-13T08:02:58;7.75;;;1.85;;
68229;SDS011;55048;52.220;5.160;2023-07-13T08:07:52;7.70;;;1.55;;
68229;SDS011;55048;52.220;5.160;2023-07-13T08:10:18;9.52;;;1.90;;
68229;SDS011;55048;52.220;5.160;2023-07-13T08:12:44;10.00;;;1.77;;
68229;SDS011;55048;52.220;5.160;2023-07-13T08:15:12;7.63;;;1.77;;
68229;SDS011;55048;52.220;5.160;2023-07-13T08:17:39;5.72;;;1.60;;
68229;SDS011;55048;52.220;5.160;2023-07-13T08:20:04;8.20;;;1.90;;
68229;SDS011;55048;52.220;5.160;2023-07-13T08:22:31;10.77;;;1.70;;
68229;SDS011;55048;52.220;5.160;2023-07-13T08:24:56;9.98;;;1.95;;
68229;SDS011;55048;52.220;5.160;2023-07-13T08:27:22;14.85;;;2.50;;
68229;SDS011;55048;52.220;5.160;2023-07-13T08:29:49;11.30;;;2.38;;
68229;SDS011;55048;52.220;5.160;2023-07-13T08:32:15;9.13;;;2.30;;
68229;SDS011;55048;52.220;5.160;2023-07-13T08:34:41;7.65;;;1.20;;
68229;SDS011;55048;52.220;5.160;2023-07-13T08:37:07;4.82;;;1.20;;
68229;SDS011;55048;52.220;5.160;2023-07-13T08:39:33;6.97;;;1.08;;
68229;SDS011;55048;52.220;5.160;2023-07-13T08:42:01;3.83;;;0.68;;
68229;SDS011;55048;52.220;5.160;2023-07-13T08:44:41;5.85;;;1.00;;
68229;SDS011;55048;52.220;5.160;2023-07-13T08:47:39;4.25;;;1.00;;
68229;SDS011;55048;52.220;5.160;2023-07-13T08:50:13;5.72;;;1.42;;
68229;SDS011;55048;52.220;5.160;2023-07-13T08:52:43;9.25;;;1.60;;
68229;SDS011;55048;52.220;5.160;2023-07-13T08:57:37;5.43;;;1.20;;
68229;SDS011;55048;52.220;5.160;2023-07-13T09:00:09;5.43;;;1.40;;
68229;SDS011;55048;52.220;5.160;2023-07-13T09:02:40;3.45;;;1.05;;
68229;SDS011;55048;52.220;5.160;2023-07-13T09:05:12;2.95;;;0.75;;
68229;SDS011;55048;52.220;5.160;2023-07-13T09:07:45;4.38;;;0.73;;
68229;SDS011;55048;52.220;5.160;2023-07-13T09:15:41;4.53;;;1.10;;
68229;SDS011;55048;52.220;5.160;2023-07-13T09:27:17;3.38;;;1.00;;
68229;SDS011;55048;52.220;5.160;2023-07-13T09:29:51;4.13;;;1.10;;
68229;SDS011;55048;52.220;5.160;2023-07-13T09:32:23;7.47;;;1.40;;
68229;SDS011;55048;52.220;5.160;2023-07-13T09:34:52;9.23;;;1.23;;
68229;SDS011;55048;52.220;5.160;2023-07-13T09:37:20;6.63;;;1.27;;
68229;SDS011;55048;52.220;5.160;2023-07-13T09:39:48;5.20;;;1.27;;
68229;SDS011;55048;52.220;5.160;2023-07-13T09:42:20;10.13;;;1.52;;
68229;SDS011;55048;52.220;5.160;2023-07-13T09:47:16;5.80;;;1.42;;
68229;SDS011;55048;52.220;5.160;2023-07-13T09:49:43;4.50;;;1.17;;
68229;SDS011;55048;52.220;5.160;2023-07-13T09:52:14;6.07;;;1.30;;
68229;SDS011;55048;52.220;5.160;2023-07-13T09:54:44;5.65;;;1.30;;
68229;SDS011;55048;52.220;5.160;2023-07-13T09:57:15;7.18;;;1.48;;
68229;SDS011;55048;52.220;5.160;2023-07-13T09:59:43;10.10;;;1.63;;
68229;SDS011;55048;52.220;5.160;2023-07-13T10:04:59;8.82;;;1.60;;
68229;SDS011;55048;52.220;5.160;2023-07-13T10:07:28;4.43;;;1.30;;
68229;SDS011;55048;52.220;5.160;2023-07-13T10:09:56;9.25;;;1.30;;
68229;SDS011;55048;52.220;5.160;2023-07-13T10:12:23;7.80;;;1.05;;
68229;SDS011;55048;52.220;5.160;2023-07-13T10:14:50;10.57;;;1.00;;
68229;SDS011;55048;52.220;5.160;2023-07-13T10:17:21;3.28;;;1.05;;
68229;SDS011;55048;52.220;5.160;2023-07-13T10:19:56;8.85;;;1.00;;
68229;SDS011;55048;52.220;5.160;2023-07-13T10:25:18;5.72;;;1.02;;
68229;SDS011;55048;52.220;5.160;2023-07-13T10:27:46;3.75;;;1.10;;
68229;SDS011;55048;52.220;5.160;2023-07-13T10:30:21;6.13;;;1.20;;
68229;SDS011;55048;52.220;5.160;2023-07-13T10:33:00;7.43;;;1.27;;
68229;SDS011;55048;52.220;5.160;2023-07-13T10:35:28;3.97;;;1.08;;
68229;SDS011;55048;52.220;5.160;2023-07-13T10:40:41;4.45;;;1.30;;
68229;SDS011;55048;52.220;5.160;2023-07-13T10:43:53;4.10;;;0.98;;
68229;SDS011;55048;52.220;5.160;2023-07-13T10:46:04;7.25;;;1.20;;
68229;SDS011;55048;52.220;5.160;2023-07-13T10:48:33;6.63;;;0.90;;
68229;SDS011;55048;52.220;5.160;2023-07-13T10:51:02;4.88;;;1.00;;
68229;SDS011;55048;52.220;5.160;2023-07-13T10:53:32;4.82;;;1.10;;
68229;SDS011;55048;52.220;5.160;2023-07-13T10:58:46;8.50;;;1.27;;
68229;SDS011;55048;52.220;5.160;2023-07-13T11:01:15;8.40;;;1.30;;
68229;SDS011;55048;52.220;5.160;2023-07-13T11:06:12;6.25;;;1.15;;
68229;SDS011;55048;52.220;5.160;2023-07-13T11:19:08;5.43;;;1.02;;
68229;SDS011;55048;52.220;5.160;2023-07-13T11:22:01;4.63;;;1.13;;
68229;SDS011;55048;52.220;5.160;2023-07-13T11:24:49;4.72;;;1.00;;
68229;SDS011;55048;52.220;5.160;2023-07-13T11:27:22;5.85;;;0.90;;
68229;SDS011;55048;52.220;5.160;2023-07-13T11:30:09;3.85;;;1.02;;
68229;SDS011;55048;52.220;5.160;2023-07-13T11:32:42;5.90;;;1.00;;
68229;SDS011;55048;52.220;5.160;2023-07-13T11:35:15;4.55;;;1.00;;
68229;SDS011;55048;52.220;5.160;2023-07-13T11:37:48;8.07;;;1.00;;
68229;SDS011;55048;52.220;5.160;2023-07-13T11:40:14;6.57;;;0.95;;
68229;SDS011;55048;52.220;5.160;2023-07-13T11:42:40;4.13;;;0.90;;
68229;SDS011;55048;52.220;5.160;2023-07-13T11:45:18;3.97;;;1.23;;
68229;SDS011;55048;52.220;5.160;2023-07-13T11:47:48;5.05;;;0.75;;
68229;SDS011;55048;52.220;5.160;2023-07-13T11:50:20;3.70;;;0.90;;
68229;SDS011;55048;52.220;5.160;2023-07-13T11:52:49;12.25;;;1.50;;
68229;SDS011;55048;52.220;5.160;2023-07-13T11:55:19;3.85;;;0.80;;
68229;SDS011;55048;52.220;5.160;2023-07-13T11:57:58;6.10;;;0.95;;
68229;SDS011;55048;52.220;5.160;2023-07-13T12:00:28;3.70;;;0.90;;
68229;SDS011;55048;52.220;5.160;2023-07-13T12:02:59;4.40;;;0.80;;
68229;SDS011;55048;52.220;5.160;2023-07-13T12:05:26;4.68;;;1.08;;
68229;SDS011;55048;52.220;5.160;2023-07-13T12:07:52;6.85;;;0.85;;
68229;SDS011;55048;52.220;5.160;2023-07-13T12:10:29;2.17;;;0.65;;
68229;SDS011;55048;52.220;5.160;2023-07-13T12:15:33;4.45;;;0.70;;
68229;SDS011;55048;52.220;5.160;2023-07-13T12:18:15;5.15;;;0.80;;
68229;SDS011;55048;52.220;5.160;2023-07-13T12:20:44;6.43;;;1.00;;
68229;SDS011;55048;52.220;5.160;2023-07-13T12:23:32;4.07;;;1.13;;
68229;SDS011;55048;52.220;5.160;2023-07-13T12:25:59;5.90;;;1.00;;
68229;SDS011;55048;52.220;5.160;2023-07-13T12:28:31;7.43;;;1.10;;
68229;SDS011;55048;52.220;5.160;2023-07-13T12:31:01;6.05;;;1.13;;
68229;SDS011;55048;52.220;5.160;2023-07-13T12:33:30;5.80;;;0.90;;
68229;SDS011;55048;52.220;5.160;2023-07-13T12:36:06;9.27;;;1.33;;
68229;SDS011;55048;52.220;5.160;2023-07-13T12:38:44;3.58;;;0.80;;
68229;SDS011;55048;52.220;5.160;2023-07-13T12:41:11;12.60;;;1.23;;
68229;SDS011;55048;52.220;5.160;2023-07-13T12:43:40;5.35;;;0.88;;
68229;SDS011;55048;52.220;5.160;2023-07-13T12:49:04;6.47;;;0.98;;
68229;SDS011;55048;52.220;5.160;2023-07-13T12:51:32;4.10;;;0.90;;
68229;SDS011;55048;52.220;5.160;2023-07-13T12:54:05;6.85;;;1.10;;
68229;SDS011;55048;52.220;5.160;2023-07-13T12:56:38;4.05;;;0.90;;
68229;SDS011;55048;52.220;5.160;2023-07-13T12:59:04;2.05;;;0.80;;
68229;SDS011;55048;52.220;5.160;2023-07-13T13:02:02;5.13;;;1.00;;
68229;SDS011;55048;52.220;5.160;2023-07-13T13:04:44;5.72;;;0.90;;
68229;SDS011;55048;52.220;5.160;2023-07-13T13:07:23;5.28;;;1.20;;
68229;SDS011;55048;52.220;5.160;2023-07-13T13:09:52;6.35;;;0.90;;
68229;SDS011;55048;52.220;5.160;2023-07-13T13:12:22;5.35;;;1.10;;
68229;SDS011;55048;52.220;5.160;2023-07-13T13:14:51;3.47;;;1.10;;
68229;SDS011;55048;52.220;5.160;2023-07-13T13:17:22;8.73;;;1.50;;
68229;SDS011;55048;52.220;5.160;2023-07-13T13:19:54;5.50;;;1.08;;
68229;SDS011;55048;52.220;5.160;2023-07-13T13:22:21;5.47;;;0.90;;
68229;SDS011;55048;52.220;5.160;2023-07-13T13:24:46;7.35;;;1.23;;
68229;SDS011;55048;52.220;5.160;2023-07-13T13:27:24;4.30;;;0.90;;
68229;SDS011;55048;52.220;5.160;2023-07-13T13:29:51;10.13;;;1.20;;
68229;SDS011;55048;52.220;5.160;2023-07-13T13:32:19;6.10;;;0.98;;
68229;SDS011;55048;52.220;5.160;2023-07-13T13:34:45;2.63;;;0.98;;
68229;SDS011;55048;52.220;5.160;2023-07-13T13:39:44;5.15;;;1.10;;
68229;SDS011;55048;52.220;5.160;2023-07-13T13:42:13;3.10;;;0.70;;
68229;SDS011;55048;52.220;5.160;2023-07-13T13:44:42;4.85;;;1.40;;
68229;SDS011;55048;52.220;5.160;2023-07-13T13:47:16;3.42;;;1.10;;
68229;SDS011;55048;52.220;5.160;2023-07-13T13:49:56;3.75;;;0.90;;
68229;SDS011;55048;52.220;5.160;2023-07-13T13:52:22;4.63;;;0.98;;
68229;SDS011;55048;52.220;5.160;2023-07-13T13:54:51;3.20;;;0.90;;
68229;SDS011;55048;52.220;5.160;2023-07-13T13:57:21;6.25;;;0.90;;
68229;SDS011;55048;52.220;5.160;2023-07-13T13:59:51;3.85;;;0.95;;
68229;SDS011;55048;52.220;5.160;2023-07-13T14:02:25;4.30;;;0.80;;
68229;SDS011;55048;52.220;5.160;2023-07-13T14:04:54;4.70;;;1.13;;
68229;SDS011;55048;52.220;5.160;2023-07-13T14:07:24;2.88;;;0.90;;
68229;SDS011;55048;52.220;5.160;2023-07-13T14:09:51;5.65;;;0.80;;
68229;SDS011;55048;52.220;5.160;2023-07-13T14:12:24;5.00;;;1.10;;
68229;SDS011;55048;52.220;5.160;2023-07-13T14:14:53;2.40;;;0.90;;
68229;SDS011;55048;52.220;5.160;2023-07-13T14:17:19;2.80;;;0.80;;
68229;SDS011;55048;52.220;5.160;2023-07-13T14:19:48;4.75;;;0.98;;
68229;SDS011;55048;52.220;5.160;2023-07-13T14:22:19;3.28;;;0.80;;
68229;SDS011;55048;52.220;5.160;2023-07-13T14:27:11;4.28;;;0.90;;
68229;SDS011;55048;52.220;5.160;2023-07-13T14:29:37;4.28;;;1.08;;
68229;SDS011;55048;52.220;5.160;2023-07-13T14:32:03;3.90;;;1.00;;
68229;SDS011;55048;52.220;5.160;2023-07-13T14:34:31;4.00;;;0.70;;
68229;SDS011;55048;52.220;5.160;2023-07-13T14:36:56;2.63;;;0.80;;
68229;SDS011;55048;52.220;5.160;2023-07-13T14:39:24;2.88;;;0.80;;
68229;SDS011;55048;52.220;5.160;2023-07-13T14:41:51;1.42;;;0.70;;
68229;SDS011;55048;52.220;5.160;2023-07-13T14:44:22;2.33;;;0.80;;
68229;SDS011;55048;52.220;5.160;2023-07-13T14:46:50;5.22;;;1.00;;
68229;SDS011;55048;52.220;5.160;2023-07-13T14:49:24;2.53;;;0.75;;
68229;SDS011;55048;52.220;5.160;2023-07-13T14:51:51;2.22;;;0.70;;
68229;SDS011;55048;52.220;5.160;2023-07-13T14:54:17;4.50;;;1.00;;
68229;SDS011;55048;52.220;5.160;2023-07-13T14:56:42;4.10;;;0.88;;
68229;SDS011;55048;52.220;5.160;2023-07-13T14:59:09;3.20;;;0.80;;
68229;SDS011;55048;52.220;5.160;2023-07-13T15:01:37;3.97;;;0.95;;
68229;SDS011;55048;52.220;5.160;2023-07-13T15:04:05;2.47;;;0.70;;
68229;SDS011;55048;52.220;5.160;2023-07-13T15:06:31;5.97;;;0.70;;
68229;SDS011;55048;52.220;5.160;2023-07-13T15:08:57;2.25;;;0.70;;
68229;SDS011;55048;52.220;5.160;2023-07-13T15:11:22;3.70;;;0.88;;
68229;SDS011;55048;52.220;5.160;2023-07-13T15:13:49;4.32;;;0.68;;
68229;SDS011;55048;52.220;5.160;2023-07-13T15:16:22;1.05;;;0.50;;
68229;SDS011;55048;52.220;5.160;2023-07-13T15:18:49;3.45;;;0.63;;
68229;SDS011;55048;52.220;5.160;2023-07-13T15:21:22;3.42;;;0.50;;
68229;SDS011;55048;52.220;5.160;2023-07-13T15:23:50;2.67;;;0.60;;
68229;SDS011;55048;52.220;5.160;2023-07-13T15:26:17;2.85;;;0.60;;
68229;SDS011;55048;52.220;5.160;2023-07-13T15:28:44;2.08;;;1.08;;
68229;SDS011;55048;52.220;5.160;2023-07-13T15:31:17;2.28;;;0.60;;
68229;SDS011;55048;52.220;5.160;2023-07-13T15:33:45;3.88;;;0.77;;
68229;SDS011;55048;52.220;5.160;2023-07-13T15:36:14;1.02;;;0.50;;
68229;SDS011;55048;52.220;5.160;2023-07-13T15:38:42;4.10;;;0.88;;
68229;SDS011;55048;52.220;5.160;2023-07-13T15:41:20;3.05;;;0.82;;
68229;SDS011;55048;52.220;5.160;2023-07-13T15:43:48;6.70;;;1.20;;
68229;SDS011;55048;52.220;5.160;2023-07-13T15:46:15;3.92;;;0.90;;